createdAt,value
2018-07-20T15:26:31.375Z,37.30
2018-07-20T15:29:01.293Z,37.30
2018-07-20T15:31:31.165Z,37.10
2018-07-20T15:34:00.946Z,36.80
2018-07-20T15:36:30.751Z,36.40
2018-07-20T15:39:00.593Z,35.90
2018-07-20T15:41:30.514Z,35.40
2018-07-20T15:44:00.380Z,35.10
2018-07-20T15:46:30.263Z,34.70
2018-07-20T15:49:00.008Z,34.40
2018-07-20T15:51:55.489Z,34.20
2018-07-20T15:53:59.883Z,33.90
2018-07-20T15:56:29.681Z,33.90
2018-07-20T15:58:59.445Z,33.70
2018-07-20T16:01:29.304Z,33.60
2018-07-20T16:03:59.178Z,33.80
2018-07-20T16:06:28.987Z,34.10
2018-07-20T16:08:58.792Z,34.00
2018-07-20T16:11:28.609Z,34.00
2018-07-20T16:14:00.754Z,33.90
2018-07-20T16:16:30.574Z,33.80
2018-07-20T16:19:00.406Z,33.60
2018-07-20T16:21:30.254Z,33.40
2018-07-20T16:24:00.052Z,33.10
2018-07-20T16:26:29.932Z,33.00
2018-07-20T16:28:59.776Z,33.10
2018-07-20T16:31:29.584Z,33.20
2018-07-20T16:33:59.370Z,33.50
2018-07-20T16:36:29.604Z,34.00
2018-07-20T16:38:59.436Z,34.40
2018-07-20T16:41:29.291Z,34.70
2018-07-20T16:43:59.104Z,35.30
2018-07-20T16:46:28.875Z,35.70
2018-07-20T16:48:58.705Z,36.20
2018-07-20T16:51:28.838Z,36.70
2018-07-20T16:53:58.657Z,37.30
2018-07-20T16:56:28.688Z,38.20
2018-07-20T16:58:58.557Z,39.60
2018-07-20T17:01:28.418Z,40.70
2018-07-20T17:03:58.300Z,41.10
2018-07-20T17:06:28.296Z,41.80
2018-07-20T17:08:58.142Z,42.50
2018-07-20T17:11:28.045Z,43.20
2018-07-20T17:13:57.832Z,43.60
2018-07-20T17:16:27.722Z,43.80
2018-07-20T17:18:57.510Z,43.60
2018-07-20T17:21:27.380Z,43.00
2018-07-20T17:23:58.390Z,42.00
2018-07-20T17:26:28.911Z,41.40
2018-07-20T17:28:58.741Z,40.70
2018-07-20T17:31:28.579Z,39.50
2018-07-20T17:33:58.453Z,38.10
2018-07-20T17:36:28.330Z,36.00
2018-07-20T17:38:58.120Z,34.30
2018-07-20T17:41:27.953Z,33.50
2018-07-20T17:43:57.993Z,32.70
2018-07-20T17:46:27.784Z,32.10
2018-07-20T17:48:57.716Z,32.00
2018-07-20T17:51:27.532Z,32.20
2018-07-20T17:53:57.342Z,32.30
2018-07-20T17:56:27.221Z,32.40
2018-07-20T17:58:56.978Z,32.40
2018-07-20T18:01:26.785Z,32.30
2018-07-20T18:03:56.557Z,32.10
2018-07-20T18:06:26.513Z,31.70
2018-07-20T18:08:56.373Z,31.70
2018-07-20T18:13:55.469Z,31.40
2018-07-20T18:16:25.264Z,31.20
2018-07-20T18:18:55.054Z,30.90
2018-07-20T18:21:24.842Z,30.80
2018-07-20T18:23:54.651Z,30.50
2018-07-20T18:26:24.461Z,30.40
2018-07-20T18:28:54.274Z,30.20
2018-07-20T18:31:24.072Z,29.80
2018-07-20T18:33:53.959Z,29.60
2018-07-20T18:36:23.688Z,29.20
2018-07-20T18:38:53.489Z,29.60
2018-07-20T18:41:23.343Z,29.60
2018-07-20T18:43:53.224Z,29.40
2018-07-20T18:46:23.033Z,29.30
2018-07-20T18:48:52.842Z,29.20
2018-07-20T18:51:22.634Z,29.00
2018-07-20T18:53:52.415Z,28.90
2018-07-20T18:56:22.220Z,28.60
2018-07-20T18:58:51.985Z,28.30
2018-07-20T19:01:21.758Z,28.10
2018-07-20T19:03:51.537Z,28.10
2018-07-20T19:06:21.423Z,28.00
2018-07-20T19:08:51.230Z,28.00
2018-07-20T19:11:21.050Z,28.00
2018-07-20T19:13:50.920Z,28.10
2018-07-20T19:16:20.705Z,28.10
2018-07-20T19:18:50.492Z,28.00
2018-07-20T19:21:20.325Z,28.10
2018-07-20T19:23:50.184Z,28.00
2018-07-20T19:26:20.053Z,27.90
2018-07-20T19:28:49.867Z,27.90
2018-07-20T19:31:19.680Z,27.80
2018-07-20T19:33:49.566Z,27.70
2018-07-20T19:36:19.421Z,27.60
2018-07-20T19:38:49.247Z,27.50
2018-07-20T19:41:19.038Z,27.50
2018-07-20T19:43:48.821Z,28.50
2018-07-20T19:46:18.585Z,27.20
2018-07-20T19:48:48.447Z,27.10
2018-07-20T19:51:18.345Z,27.00
2018-07-20T19:53:48.129Z,26.80
2018-07-20T19:56:17.914Z,26.60
2018-07-20T19:58:47.836Z,26.60
2018-07-20T20:01:17.697Z,26.60
2018-07-20T20:03:47.500Z,26.60
2018-07-20T20:06:17.314Z,26.60
2018-07-20T20:08:47.082Z,26.70
2018-07-20T20:11:16.944Z,26.60
2018-07-20T20:13:46.734Z,26.50
2018-07-20T20:16:16.727Z,26.40
2018-07-20T20:18:46.520Z,26.30
2018-07-20T20:21:16.320Z,26.30
2018-07-20T20:23:46.444Z,26.30
2018-07-20T20:26:16.196Z,26.20
2018-07-20T20:28:46.009Z,26.20
2018-07-20T20:31:15.813Z,26.00
2018-07-20T20:33:45.675Z,26.00
2018-07-20T20:36:15.436Z,26.00
2018-07-20T20:38:45.268Z,26.00
2018-07-20T20:41:15.069Z,25.90
2018-07-20T20:43:44.852Z,25.90
2018-07-20T20:46:14.599Z,25.80
2018-07-20T20:48:44.429Z,25.70
2018-07-20T20:51:14.213Z,25.60
2018-07-20T20:53:44.018Z,25.50
2018-07-20T20:56:13.874Z,26.30
2018-07-20T20:58:43.713Z,25.60
2018-07-20T21:01:13.511Z,25.10
2018-07-20T21:03:43.301Z,25.10
2018-07-20T21:06:13.124Z,23.60
2018-07-20T21:08:42.898Z,24.90
2018-07-20T21:11:12.731Z,24.70
2018-07-20T21:13:42.521Z,25.20
2018-07-20T21:16:12.424Z,24.70
2018-07-20T21:18:42.229Z,25.20
2018-07-20T21:21:11.983Z,24.40
2018-07-20T21:26:11.031Z,24.50
2018-07-20T21:28:40.834Z,24.50
2018-07-20T21:31:10.627Z,24.50
2018-07-20T21:33:40.463Z,24.50
2018-07-20T21:36:10.325Z,24.40
2018-07-20T21:38:40.189Z,24.40
2018-07-20T21:41:10.021Z,24.30
2018-07-20T21:43:39.822Z,24.40
2018-07-20T21:46:09.677Z,24.40
2018-07-20T21:48:39.521Z,24.40
2018-07-20T21:51:09.785Z,24.40
2018-07-20T21:53:40.188Z,24.40
2018-07-20T21:56:10.468Z,24.40
2018-07-20T21:58:40.256Z,24.40
2018-07-20T22:01:10.095Z,24.40
2018-07-20T22:06:09.198Z,24.50
2018-07-20T22:08:38.984Z,24.40
2018-07-20T22:11:08.774Z,24.40
2018-07-20T22:13:38.581Z,24.40
2018-07-20T22:16:08.366Z,24.30
2018-07-20T22:18:38.235Z,24.30
2018-07-20T22:21:08.014Z,24.20
2018-07-20T22:23:37.828Z,24.20
2018-07-20T22:26:07.621Z,24.20
2018-07-20T22:28:37.476Z,24.10
2018-07-20T22:31:07.347Z,24.00
2018-07-20T22:33:37.131Z,24.00
2018-07-20T22:36:06.987Z,23.90
2018-07-20T22:38:36.802Z,23.90
2018-07-20T22:41:06.642Z,23.80
2018-07-20T22:43:36.442Z,23.80
2018-07-20T22:46:06.613Z,23.80
2018-07-20T22:48:36.400Z,23.80
2018-07-20T22:51:06.244Z,23.80
2018-07-20T22:53:36.034Z,23.80
2018-07-20T22:58:35.106Z,23.70
2018-07-20T23:01:04.891Z,23.60
2018-07-20T23:03:34.668Z,23.60
2018-07-20T23:06:04.487Z,23.70
2018-07-20T23:08:34.269Z,23.60
2018-07-20T23:11:04.047Z,23.70
2018-07-20T23:13:33.808Z,23.60
2018-07-20T23:16:03.580Z,23.50
2018-07-20T23:21:02.700Z,23.60
2018-07-20T23:23:32.449Z,23.50
2018-07-20T23:26:02.264Z,23.50
2018-07-20T23:28:32.105Z,23.50
2018-07-20T23:31:01.959Z,23.40
2018-07-20T23:33:31.901Z,23.40
2018-07-20T23:36:01.680Z,23.30
2018-07-20T23:38:31.512Z,22.90
2018-07-20T23:41:01.348Z,23.20
2018-07-20T23:43:31.157Z,23.30
2018-07-20T23:46:00.978Z,23.30
2018-07-20T23:48:30.802Z,23.20
2018-07-20T23:51:00.709Z,23.30
2018-07-20T23:53:30.557Z,23.10
2018-07-20T23:56:00.376Z,23.70
2018-07-20T23:58:30.132Z,23.20
